Time;durP1;ratioP1;P1;durP2;ratioP2;P2;SDS_P1;SDS_P2;PMS_P1;PMS_P2;Temp;Humidity;BMP_temperature;BMP_pressure;BME280_temperature;BME280_humidity;BME280_pressure;Samples;Min_cycle;Max_cycle;Signal;HPM_P1;HPM_P2
2023/03/07 00:01:27;;;;;;;22.67;13.63;;;3.60;99.90;;;;;;5045835;28;20413;-65
2023/03/07 00:03:54;;;;;;;23.37;13.20;;;3.50;99.90;;;;;;5045737;28;20208;-65
2023/03/07 00:06:21;;;;;;;22.43;13.37;;;3.50;99.90;;;;;;5045783;28;20526;-65
2023/03/07 00:08:50;;;;;;;22.70;14.53;;;3.50;99.90;;;;;;5058384;28;20196;-65
2023/03/07 00:11:17;;;;;;;23.33;14.43;;;3.50;99.90;;;;;;5036836;28;20211;-65
2023/03/07 00:13:43;;;;;;;22.07;12.93;;;3.50;99.90;;;;;;5031194;28;20569;-65
2023/03/07 00:16:12;;;;;;;23.43;14.20;;;3.40;99.90;;;;;;5040689;28;20691;-65
2023/03/07 00:18:41;;;;;;;22.73;13.70;;;3.40;99.90;;;;;;5045134;28;20223;-65
2023/03/07 00:21:11;;;;;;;21.10;12.63;;;3.40;99.90;;;;;;5051268;28;20230;-65
2023/03/07 00:23:39;;;;;;;21.70;13.50;;;3.40;99.90;;;;;;5056968;28;20204;-65
2023/03/07 00:26:08;;;;;;;25.03;13.70;;;3.40;99.90;;;;;;5043218;28;20212;-65
2023/03/07 00:28:34;;;;;;;22.90;13.40;;;3.30;99.90;;;;;;5027607;28;20627;-65
2023/03/07 00:31:03;;;;;;;23.30;12.63;;;3.30;99.90;;;;;;5037604;28;20233;-65
2023/03/07 00:33:30;;;;;;;22.70;13.23;;;3.30;99.90;;;;;;5059464;28;20337;-65
2023/03/07 00:36:00;;;;;;;21.20;12.40;;;3.40;99.90;;;;;;5043531;28;20223;-65
2023/03/07 00:38:29;;;;;;;21.50;12.03;;;3.30;99.90;;;;;;5047448;28;20226;-65
2023/03/07 00:40:58;;;;;;;22.17;11.93;;;3.40;99.90;;;;;;5059835;28;20200;-65
2023/03/07 00:43:25;;;;;;;23.27;11.97;;;3.40;99.90;;;;;;5034130;28;20219;-65
2023/03/07 00:45:52;;;;;;;16.63;11.20;;;3.30;99.90;;;;;;5053043;28;20201;-65
2023/03/07 00:48:18;;;;;;;18.83;11.07;;;3.30;99.90;;;;;;5038432;28;20204;-65
2023/03/07 00:50:45;;;;;;;18.17;11.27;;;3.30;99.90;;;;;;5039804;28;20199;-65
2023/03/07 00:53:14;;;;;;;19.30;10.80;;;3.30;99.90;;;;;;5043681;28;20228;-65
2023/03/07 00:55:41;;;;;;;16.63;10.10;;;3.30;99.90;;;;;;5055471;28;20877;-65
2023/03/07 00:58:07;;;;;;;16.87;10.17;;;3.30;99.90;;;;;;5040573;28;20811;-65
2023/03/07 01:00:34;;;;;;;16.93;9.20;;;3.30;99.90;;;;;;5045557;28;20405;-65
2023/03/07 01:03:02;;;;;;;17.23;9.67;;;3.30;99.90;;;;;;5044201;28;20204;-65
2023/03/07 01:05:29;;;;;;;17.20;9.40;;;3.30;99.90;;;;;;5042507;28;20263;-65
2023/03/07 01:07:56;;;;;;;16.83;9.97;;;3.30;99.90;;;;;;5049164;28;20278;-65
2023/03/07 01:10:25;;;;;;;17.57;9.30;;;3.30;99.90;;;;;;5054909;28;21000;-65
2023/03/07 01:12:52;;;;;;;17.77;9.97;;;3.30;99.90;;;;;;5049859;28;20214;-65
2023/03/07 01:15:19;;;;;;;16.97;9.60;;;3.30;99.90;;;;;;5029230;28;20548;-65
2023/03/07 01:17:46;;;;;;;12.33;8.47;;;3.30;99.90;;;;;;5048562;28;20228;-65
2023/03/07 01:20:13;;;;;;;15.27;9.90;;;3.30;99.90;;;;;;5056931;28;20197;-65
2023/03/07 01:22:39;;;;;;;13.63;8.20;;;3.30;99.90;;;;;;5030456;28;20768;-65
2023/03/07 01:25:07;;;;;;;16.93;9.53;;;3.30;99.90;;;;;;5062377;28;20697;-65
2023/03/07 01:27:35;;;;;;;13.37;8.40;;;3.30;99.90;;;;;;5056594;28;20204;-65
2023/03/07 01:30:02;;;;;;;13.97;8.27;;;3.30;99.90;;;;;;5032670;28;20251;-65
2023/03/07 01:32:29;;;;;;;12.77;7.73;;;3.30;99.90;;;;;;5054968;28;20204;-65
2023/03/07 01:34:56;;;;;;;13.67;8.00;;;3.30;99.90;;;;;;5052719;28;20725;-65
2023/03/07 01:37:23;;;;;;;11.73;7.77;;;3.30;99.90;;;;;;5041127;28;20247;-65
2023/03/07 01:39:51;;;;;;;12.77;7.80;;;3.30;99.90;;;;;;5049326;28;20307;-65
2023/03/07 01:42:18;;;;;;;18.60;9.23;;;3.30;99.90;;;;;;5055803;28;20207;-65
2023/03/07 01:45:07;;;;;;;11.90;7.90;;;3.40;99.90;;;;;;5055756;28;20775;-65
2023/03/07 01:47:34;;;;;;;13.60;8.33;;;3.30;99.90;;;;;;5019002;28;20696;-65
2023/03/07 01:50:05;;;;;;;12.77;8.03;;;3.40;99.90;;;;;;5059969;28;20212;-65
2023/03/07 01:52:34;;;;;;;16.27;8.00;;;3.40;99.90;;;;;;5039201;28;20235;-65
2023/03/07 01:55:04;;;;;;;13.77;7.83;;;3.40;99.90;;;;;;5049145;28;20201;-66
2023/03/07 01:57:35;;;;;;;9.90;6.90;;;3.40;99.90;;;;;;5060569;28;20286;-65
2023/03/07 02:00:09;;;;;;;12.00;7.13;;;3.40;99.90;;;;;;5055656;28;20196;-65
2023/03/07 02:02:37;;;;;;;13.10;6.87;;;3.40;99.90;;;;;;5028208;28;20227;-65
2023/03/07 02:05:09;;;;;;;12.53;7.10;;;3.40;99.90;;;;;;5049335;28;20221;-65
2023/03/07 02:07:41;;;;;;;12.33;6.83;;;3.40;99.90;;;;;;5035605;28;20252;-65
2023/03/07 02:10:11;;;;;;;9.63;6.50;;;3.40;99.90;;;;;;5048175;28;20697;-65
2023/03/07 02:12:39;;;;;;;9.77;6.33;;;3.40;99.90;;;;;;5054289;28;20197;-65
2023/03/07 02:15:09;;;;;;;10.37;6.47;;;3.40;99.90;;;;;;5057531;28;20218;-65
2023/03/07 02:17:36;;;;;;;9.67;6.63;;;3.40;99.90;;;;;;5032032;28;20605;-65
2023/03/07 02:20:19;;;;;;;10.87;6.67;;;3.40;99.90;;;;;;5039028;28;20212;-65
2023/03/07 02:22:48;;;;;;;9.53;5.97;;;3.40;99.90;;;;;;5047767;28;20222;-65
2023/03/07 02:25:20;;;;;;;9.43;6.30;;;3.40;99.90;;;;;;5034609;28;20954;-65
2023/03/07 02:27:49;;;;;;;9.17;5.70;;;3.50;99.90;;;;;;5045115;28;20433;-65
2023/03/07 02:30:17;;;;;;;8.97;5.30;;;3.50;99.90;;;;;;5058443;28;20228;-65
2023/03/07 02:32:44;;;;;;;7.63;5.70;;;3.50;99.90;;;;;;5028563;28;20425;-65
2023/03/07 02:35:15;;;;;;;7.83;5.23;;;3.50;99.90;;;;;;5046006;28;20681;-65
2023/03/07 02:37:44;;;;;;;8.87;5.43;;;3.50;99.90;;;;;;5055247;28;20613;-65
2023/03/07 02:40:15;;;;;;;9.43;5.00;;;3.50;99.90;;;;;;5042923;28;20278;-66
2023/03/07 02:42:43;;;;;;;6.97;4.80;;;3.50;99.90;;;;;;5037538;28;20369;-65
2023/03/07 02:45:14;;;;;;;8.53;5.03;;;3.50;99.90;;;;;;5058993;28;20204;-65
2023/03/07 02:47:42;;;;;;;9.73;5.13;;;3.60;99.90;;;;;;5027283;28;21779;-65
2023/03/07 02:50:10;;;;;;;10.77;4.97;;;3.60;99.90;;;;;;5052914;28;20627;-65
2023/03/07 02:52:37;;;;;;;10.40;5.17;;;3.60;99.90;;;;;;5043937;28;20586;-65
2023/03/07 02:55:06;;;;;;;8.93;4.90;;;3.60;99.90;;;;;;5040941;28;20212;-65
2023/03/07 02:57:33;;;;;;;7.07;4.20;;;3.60;99.90;;;;;;5037873;28;20630;-65
2023/03/07 03:00:00;;;;;;;5.77;3.60;;;3.60;99.90;;;;;;5056177;28;20201;-65
2023/03/07 03:02:28;;;;;;;6.13;3.83;;;3.60;99.90;;;;;;5054899;28;20192;-65
2023/03/07 03:04:55;;;;;;;7.87;3.47;;;3.60;99.90;;;;;;5030225;28;20208;-65
2023/03/07 03:07:21;;;;;;;9.23;4.13;;;3.60;99.90;;;;;;5045082;28;20777;-65
2023/03/07 03:09:48;;;;;;;8.13;3.60;;;3.60;99.90;;;;;;5054104;28;20200;-65
2023/03/07 03:12:15;;;;;;;9.53;4.00;;;3.60;99.90;;;;;;5036239;28;20208;-65
2023/03/07 03:14:42;;;;;;;4.40;3.03;;;3.60;99.90;;;;;;5038632;28;20231;-65
2023/03/07 03:17:08;;;;;;;8.10;3.33;;;3.60;99.90;;;;;;5060585;28;20216;-65
2023/03/07 03:19:37;;;;;;;3.07;2.43;;;3.50;99.90;;;;;;5033477;28;20212;-65
2023/03/07 03:22:04;;;;;;;8.53;2.50;;;3.50;99.90;;;;;;5051200;28;20682;-65
2023/03/07 03:24:31;;;;;;;4.27;2.27;;;3.60;99.90;;;;;;5061977;28;20625;-65
2023/03/07 03:26:58;;;;;;;4.23;2.13;;;3.60;99.90;;;;;;5039374;28;20200;-65
2023/03/07 03:29:25;;;;;;;6.80;2.30;;;3.50;99.90;;;;;;5055930;28;20189;-65
2023/03/07 03:31:52;;;;;;;3.27;1.93;;;3.40;99.90;;;;;;5051138;28;20648;-65
2023/03/07 03:34:19;;;;;;;3.00;1.97;;;3.50;99.90;;;;;;5056051;28;20215;-65
2023/03/07 03:36:47;;;;;;;5.07;2.17;;;3.50;99.90;;;;;;5025490;28;20850;-65
2023/03/07 03:39:14;;;;;;;7.40;1.87;;;3.40;99.90;;;;;;5038448;28;20238;-65
2023/03/07 03:41:41;;;;;;;6.27;1.87;;;3.40;99.90;;;;;;5037838;28;20207;-65
2023/03/07 03:44:08;;;;;;;2.40;1.70;;;3.40;99.90;;;;;;5046135;28;20204;-65
2023/03/07 03:46:35;;;;;;;4.17;1.70;;;3.40;99.90;;;;;;5043826;28;20211;-65
2023/03/07 03:49:02;;;;;;;4.47;2.07;;;3.40;99.90;;;;;;5052847;28;20903;-65
2023/03/07 03:51:29;;;;;;;4.40;1.53;;;3.30;99.90;;;;;;5032487;28;20231;-65
2023/03/07 03:53:57;;;;;;;2.43;1.50;;;3.30;99.90;;;;;;5042681;28;20200;-65
2023/03/07 03:56:26;;;;;;;4.70;1.40;;;3.30;99.90;;;;;;5039801;28;20202;-65
2023/03/07 03:58:55;;;;;;;4.47;1.57;;;3.30;99.90;;;;;;5045487;28;20594;-65
2023/03/07 04:01:24;;;;;;;3.27;1.40;;;3.30;99.90;;;;;;5047828;28;20619;-65
2023/03/07 04:03:52;;;;;;;3.40;1.43;;;3.40;99.90;;;;;;5061022;28;20686;-65
2023/03/07 04:06:22;;;;;;;3.80;1.43;;;3.40;99.90;;;;;;5033160;28;20500;-65
2023/03/07 04:08:49;;;;;;;5.40;1.20;;;3.40;99.90;;;;;;5048610;28;20212;-65
2023/03/07 04:11:18;;;;;;;1.80;1.17;;;3.40;99.90;;;;;;5046193;28;20195;-65
2023/03/07 04:13:45;;;;;;;2.50;1.30;;;3.40;99.90;;;;;;5047542;28;20200;-65
2023/03/07 04:16:12;;;;;;;7.07;1.50;;;3.40;99.90;;;;;;5052344;28;20196;-65
2023/03/07 04:18:39;;;;;;;4.70;1.00;;;3.40;99.90;;;;;;5050399;28;20246;-65
2023/03/07 04:21:09;;;;;;;4.77;1.37;;;3.30;99.90;;;;;;5033801;28;20244;-65
2023/03/07 04:23:36;;;;;;;3.00;1.27;;;3.30;99.90;;;;;;5045742;28;20392;-65
2023/03/07 04:26:05;;;;;;;3.50;1.27;;;3.30;99.90;;;;;;5059038;28;20685;-65
2023/03/07 04:28:42;;;;;;;5.23;1.30;;;3.30;99.90;;;;;;5034215;28;20200;-65
2023/03/07 04:31:09;;;;;;;4.63;1.27;;;3.30;99.90;;;;;;5039847;28;20282;-65
2023/03/07 04:33:36;;;;;;;2.37;0.97;;;3.30;99.90;;;;;;5042899;28;20207;-65
2023/03/07 04:36:03;;;;;;;4.83;0.90;;;3.20;99.90;;;;;;5021767;28;20697;-65
2023/03/07 04:38:30;;;;;;;1.17;1.07;;;3.20;99.90;;;;;;5033345;28;20397;-65
2023/03/07 04:40:57;;;;;;;1.60;0.97;;;3.20;99.90;;;;;;5046111;28;20197;-65
2023/03/07 04:43:23;;;;;;;4.93;1.30;;;3.20;99.90;;;;;;5032574;28;20220;-65
2023/03/07 04:45:52;;;;;;;2.57;1.10;;;3.20;99.90;;;;;;5056351;28;20196;-65
2023/03/07 04:48:20;;;;;;;5.00;1.00;;;3.20;99.90;;;;;;5042633;28;20207;-65
2023/03/07 04:50:49;;;;;;;3.87;1.20;;;3.20;99.90;;;;;;5010225;28;20204;-65
2023/03/07 04:53:15;;;;;;;3.53;1.23;;;3.10;99.90;;;;;;5032400;28;20197;-65
2023/03/07 04:55:43;;;;;;;3.67;1.23;;;3.10;99.90;;;;;;5050581;28;20261;-65
2023/03/07 04:58:11;;;;;;;4.10;1.30;;;3.10;99.90;;;;;;5035935;28;21304;-65
2023/03/07 05:00:39;;;;;;;4.77;1.03;;;3.30;99.90;;;;;;5049314;28;20658;-65
2023/03/07 05:03:08;;;;;;;9.27;0.97;;;3.10;99.90;;;;;;5054908;28;20557;-65
2023/03/07 05:05:35;;;;;;;5.30;1.43;;;3.10;99.90;;;;;;5047044;28;20402;-65
2023/03/07 05:08:03;;;;;;;2.50;1.00;;;3.10;99.90;;;;;;5031761;28;20732;-65
2023/03/07 05:10:29;;;;;;;8.70;1.73;;;3.10;99.90;;;;;;5044312;28;20207;-65
2023/03/07 05:12:56;;;;;;;5.90;1.17;;;3.10;99.90;;;;;;5056005;28;20865;-65
2023/03/07 05:15:23;;;;;;;3.67;1.97;;;3.10;99.90;;;;;;5037653;28;20207;-65
2023/03/07 05:17:50;;;;;;;4.30;1.07;;;3.10;99.90;;;;;;5057277;28;20227;-65
2023/03/07 05:20:18;;;;;;;7.70;1.00;;;3.00;99.90;;;;;;5048613;28;20209;-65
2023/03/07 05:22:46;;;;;;;6.83;1.10;;;3.00;99.90;;;;;;5028691;28;20224;-65
2023/03/07 05:25:13;;;;;;;6.40;1.10;;;3.00;99.90;;;;;;5054413;28;20355;-65
2023/03/07 05:27:40;;;;;;;7.60;1.23;;;3.00;99.90;;;;;;5053707;28;20207;-65
2023/03/07 05:30:08;;;;;;;7.40;0.93;;;3.10;99.90;;;;;;5042928;28;20234;-65
2023/03/07 05:32:35;;;;;;;7.43;0.93;;;3.10;99.90;;;;;;5041098;28;20240;-65
2023/03/07 05:35:02;;;;;;;4.67;1.27;;;3.10;99.90;;;;;;5053315;28;20223;-65
2023/03/07 05:37:30;;;;;;;2.13;0.87;;;3.10;99.90;;;;;;5018725;28;21541;-65
2023/03/07 05:39:57;;;;;;;3.37;1.03;;;3.10;99.90;;;;;;5050522;28;20224;-65
2023/03/07 05:42:24;;;;;;;7.77;1.40;;;3.10;99.90;;;;;;5042291;28;20321;-65
2023/03/07 05:44:51;;;;;;;6.67;1.33;;;3.10;99.90;;;;;;5053480;28;20188;-65
2023/03/07 05:47:17;;;;;;;4.40;1.30;;;3.10;99.90;;;;;;5031228;28;20196;-65
2023/03/07 05:49:44;;;;;;;8.90;1.80;;;3.00;99.90;;;;;;5042615;28;20235;-65
2023/03/07 05:52:11;;;;;;;7.77;1.17;;;3.00;99.90;;;;;;5022162;28;20212;-65
2023/03/07 05:54:39;;;;;;;3.67;1.27;;;3.00;99.90;;;;;;5025682;28;20346;-65
2023/03/07 05:57:06;;;;;;;3.87;0.90;;;3.00;99.90;;;;;;5033541;28;20232;-65
2023/03/07 05:59:33;;;;;;;6.70;1.27;;;3.10;99.90;;;;;;5050099;28;20784;-65
2023/03/07 06:01:59;;;;;;;9.53;1.23;;;3.00;99.90;;;;;;5023901;28;20224;-64
2023/03/07 06:04:26;;;;;;;5.20;1.10;;;3.00;99.90;;;;;;5052707;28;21049;-65
2023/03/07 06:06:53;;;;;;;7.77;1.10;;;3.00;99.90;;;;;;5040701;28;20206;-64
2023/03/07 06:09:21;;;;;;;5.50;1.00;;;3.00;99.90;;;;;;5022295;28;20436;-64
2023/03/07 06:11:49;;;;;;;8.10;1.40;;;3.00;99.90;;;;;;5059037;28;20749;-65
2023/03/07 06:14:15;;;;;;;4.27;1.27;;;3.00;99.90;;;;;;5044263;28;20513;-64
2023/03/07 06:16:43;;;;;;;7.50;1.47;;;2.90;99.90;;;;;;5032867;28;20197;-64
2023/03/07 06:19:09;;;;;;;9.90;1.17;;;3.00;99.90;;;;;;5038747;28;20986;-64
2023/03/07 06:21:36;;;;;;;8.07;1.30;;;3.00;99.90;;;;;;5050174;28;20243;-64
2023/03/07 06:24:03;;;;;;;6.23;1.20;;;3.00;99.90;;;;;;5011926;28;20227;-65
2023/03/07 06:26:31;;;;;;;3.90;0.90;;;2.90;99.90;;;;;;5056539;28;20203;-65
2023/03/07 06:28:59;;;;;;;3.53;1.20;;;2.90;99.90;;;;;;5044774;28;20277;-64
2023/03/07 06:31:27;;;;;;;2.00;0.67;;;2.90;99.90;;;;;;5058060;28;20254;-64
2023/03/07 06:33:54;;;;;;;5.33;1.20;;;3.00;99.90;;;;;;5038076;28;20200;-65
2023/03/07 06:36:21;;;;;;;6.83;1.17;;;3.00;99.90;;;;;;5053914;28;20407;-64
2023/03/07 06:38:48;;;;;;;4.77;1.00;;;3.00;99.90;;;;;;5047381;28;20306;-65
2023/03/07 06:41:15;;;;;;;5.23;1.47;;;3.10;99.90;;;;;;5039141;28;20526;-64
2023/03/07 06:43:42;;;;;;;5.57;1.20;;;3.10;99.90;;;;;;5035898;28;21085;-65
2023/03/07 06:46:10;;;;;;;2.70;0.70;;;3.10;99.90;;;;;;5054914;28;20532;-65
2023/03/07 06:48:37;;;;;;;1.93;0.70;;;3.00;99.90;;;;;;5044065;28;20281;-65
2023/03/07 06:51:09;;;;;;;6.17;0.80;;;3.00;99.90;;;;;;5059411;28;20203;-65
2023/03/07 06:53:36;;;;;;;5.50;1.20;;;3.00;99.90;;;;;;5045965;28;20732;-64
2023/03/07 06:56:04;;;;;;;8.27;1.30;;;3.00;99.90;;;;;;5030276;28;20219;-65
2023/03/07 06:58:30;;;;;;;6.47;1.17;;;3.00;99.90;;;;;;5059678;28;20300;-64
2023/03/07 07:00:57;;;;;;;6.87;1.50;;;3.00;99.90;;;;;;5046205;28;20222;-65
2023/03/07 07:03:26;;;;;;;9.03;1.40;;;3.00;99.90;;;;;;5047544;28;20216;-65
2023/03/07 07:05:52;;;;;;;7.57;1.37;;;3.10;99.90;;;;;;5045137;28;21117;-65
2023/03/07 07:08:19;;;;;;;7.23;1.03;;;3.00;99.90;;;;;;5033278;28;20208;-65
2023/03/07 07:10:46;;;;;;;3.47;1.20;;;3.00;99.90;;;;;;5025433;28;20207;-65
2023/03/07 07:13:13;;;;;;;5.37;1.00;;;3.00;99.90;;;;;;5053194;28;20915;-65
2023/03/07 07:15:40;;;;;;;3.57;0.87;;;3.00;99.90;;;;;;5037655;28;20966;-65
2023/03/07 07:18:07;;;;;;;1.83;1.10;;;3.00;99.90;;;;;;5061147;28;21328;-65
2023/03/07 07:20:36;;;;;;;2.97;1.07;;;3.10;99.90;;;;;;5035950;28;20235;-65
2023/03/07 07:23:02;;;;;;;8.77;0.90;;;3.10;99.90;;;;;;5057936;28;20225;-65
2023/03/07 07:25:29;;;;;;;4.77;1.10;;;3.10;99.90;;;;;;5021880;28;20209;-64
2023/03/07 07:27:56;;;;;;;9.97;1.30;;;3.10;99.90;;;;;;5045149;28;20208;-65
2023/03/07 07:30:23;;;;;;;5.97;1.10;;;3.10;99.90;;;;;;5061855;28;20231;-64
2023/03/07 07:32:49;;;;;;;8.43;1.00;;;3.20;99.90;;;;;;5059072;28;20200;-64
2023/03/07 07:35:16;;;;;;;8.67;1.27;;;3.20;99.90;;;;;;5065186;28;20192;-64
2023/03/07 07:37:44;;;;;;;6.13;1.20;;;3.20;99.90;;;;;;5042810;28;20210;-65
2023/03/07 07:40:14;;;;;;;2.77;0.90;;;3.20;99.90;;;;;;5028910;28;21026;-64
2023/03/07 07:42:42;;;;;;;2.33;0.70;;;3.20;99.90;;;;;;5044967;28;20204;-65
2023/03/07 07:45:09;;;;;;;4.80;1.40;;;3.40;99.90;;;;;;5058437;28;21035;-65
2023/03/07 07:47:36;;;;;;;2.13;0.60;;;3.20;99.90;;;;;;5045185;28;20227;-65
2023/03/07 07:50:03;;;;;;;5.87;0.87;;;3.20;99.90;;;;;;5050412;28;20208;-65
2023/03/07 07:52:29;;;;;;;6.90;1.27;;;3.20;99.90;;;;;;5005866;28;20337;-65
2023/03/07 07:54:58;;;;;;;8.47;1.00;;;3.20;99.90;;;;;;5050243;28;20196;-66
2023/03/07 07:57:24;;;;;;;4.27;0.90;;;3.20;99.90;;;;;;5013650;28;20500;-66
2023/03/07 07:59:51;;;;;;;6.17;1.23;;;3.20;99.90;;;;;;5027731;28;20224;-65
2023/03/07 08:02:18;;;;;;;3.03;1.03;;;3.20;99.90;;;;;;5044575;28;20208;-65
2023/03/07 08:04:46;;;;;;;4.20;0.90;;;3.20;99.90;;;;;;5049541;28;20200;-65
2023/03/07 08:07:13;;;;;;;3.07;1.00;;;3.30;99.90;;;;;;5035751;28;20382;-65
2023/03/07 08:09:40;;;;;;;8.97;1.20;;;3.20;99.90;;;;;;5058320;28;20237;-65
2023/03/07 08:12:10;;;;;;;5.43;1.10;;;3.30;99.90;;;;;;5031265;28;20211;-65
2023/03/07 08:14:37;;;;;;;7.50;1.60;;;3.30;99.90;;;;;;5046739;28;20242;-65
2023/03/07 08:17:04;;;;;;;6.70;1.27;;;3.40;99.90;;;;;;5040740;28;20196;-65
2023/03/07 08:19:31;;;;;;;10.53;1.30;;;3.40;99.90;;;;;;5053866;28;20236;-65
2023/03/07 08:21:58;;;;;;;5.63;1.20;;;3.40;99.90;;;;;;5036142;28;20294;-65
2023/03/07 08:24:26;;;;;;;5.17;1.43;;;3.40;99.90;;;;;;5046756;28;20554;-65
2023/03/07 08:26:52;;;;;;;3.27;0.83;;;3.50;99.90;;;;;;5034421;28;21150;-65
2023/03/07 08:29:20;;;;;;;4.87;1.33;;;3.50;99.90;;;;;;5048034;28;20355;-65
2023/03/07 08:31:50;;;;;;;2.00;0.90;;;3.50;99.90;;;;;;5053874;28;21198;-66
2023/03/07 08:34:17;;;;;;;6.13;1.67;;;3.60;99.90;;;;;;5037652;28;20420;-65
2023/03/07 08:36:44;;;;;;;7.53;0.80;;;3.60;99.90;;;;;;5063052;28;20235;-65
2023/03/07 08:39:11;;;;;;;6.07;1.20;;;3.60;99.90;;;;;;5041156;28;20400;-65
2023/03/07 08:41:38;;;;;;;3.83;1.03;;;3.70;99.90;;;;;;5032393;28;20990;-66
2023/03/07 08:44:05;;;;;;;5.67;0.93;;;3.60;99.90;;;;;;5050369;28;20554;-65
2023/03/07 08:46:33;;;;;;;6.97;1.57;;;3.70;99.90;;;;;;5064582;28;20192;-65
2023/03/07 08:49:00;;;;;;;6.60;1.10;;;3.70;99.90;;;;;;5040719;28;20850;-66
2023/03/07 08:51:27;;;;;;;5.50;1.07;;;3.70;99.90;;;;;;5059399;28;20220;-65
2023/03/07 08:53:54;;;;;;;4.97;1.23;;;3.70;99.90;;;;;;5041163;28;20274;-65
2023/03/07 08:56:21;;;;;;;4.83;2.00;;;3.70;99.90;;;;;;5032406;28;21323;-65
2023/03/07 08:58:47;;;;;;;8.00;2.70;;;3.60;99.90;;;;;;5031574;28;20208;-65
2023/03/07 09:01:14;;;;;;;2.67;1.03;;;3.60;99.90;;;;;;5024589;28;20425;-65
2023/03/07 09:03:42;;;;;;;5.40;1.90;;;3.70;99.90;;;;;;5054998;28;20203;-65
2023/03/07 09:06:15;;;;;;;9.57;1.83;;;3.80;99.90;;;;;;5045037;28;20203;-64
2023/03/07 09:08:42;;;;;;;1.43;1.00;;;3.80;99.90;;;;;;5039213;28;20604;-64
2023/03/07 09:11:09;;;;;;;4.37;1.07;;;3.80;99.90;;;;;;5057227;28;20196;-64
2023/03/07 09:13:36;;;;;;;2.97;1.27;;;3.80;99.90;;;;;;5021697;28;20373;-65
2023/03/07 09:16:04;;;;;;;3.77;1.10;;;3.80;99.90;;;;;;5042242;28;20545;-65
2023/03/07 09:18:31;;;;;;;2.37;1.27;;;3.80;99.90;;;;;;5051846;28;20203;-65
2023/03/07 09:21:00;;;;;;;4.13;1.40;;;3.80;99.90;;;;;;5044969;28;20232;-65
2023/03/07 09:23:27;;;;;;;6.77;1.40;;;3.90;99.90;;;;;;5058429;28;21013;-65
2023/03/07 09:25:54;;;;;;;5.67;1.73;;;3.90;99.90;;;;;;5039060;28;20512;-65
2023/03/07 09:28:21;;;;;;;6.60;1.40;;;4.00;99.90;;;;;;5032056;28;20211;-65
2023/03/07 09:30:47;;;;;;;4.53;1.53;;;4.00;99.90;;;;;;5031674;28;20236;-65
2023/03/07 09:33:14;;;;;;;5.23;1.33;;;4.00;99.90;;;;;;5057594;28;20531;-65
2023/03/07 09:35:41;;;;;;;1.97;1.13;;;4.00;99.90;;;;;;5040315;28;20212;-66
2023/03/07 09:38:10;;;;;;;3.10;1.27;;;4.10;99.90;;;;;;5043748;28;20204;-66
2023/03/07 09:40:38;;;;;;;10.10;1.40;;;4.20;99.90;;;;;;5035316;28;20306;-66
2023/03/07 09:43:13;;;;;;;5.57;1.13;;;4.20;99.90;;;;;;5041049;28;20986;-65
2023/03/07 09:45:56;;;;;;;7.20;1.20;;;4.20;99.90;;;;;;5045305;28;20200;-65
2023/03/07 09:49:01;;;;;;;5.67;1.00;;;4.30;99.90;;;;;;5054547;28;20200;-65
2023/03/07 09:51:36;;;;;;;8.50;1.20;;;4.40;99.90;;;;;;5048073;28;20877;-66
2023/03/07 09:54:09;;;;;;;9.23;1.57;;;4.40;99.90;;;;;;5057563;28;20193;-66
2023/03/07 09:56:42;;;;;;;5.43;1.00;;;4.50;99.90;;;;;;5045308;28;20200;-66
2023/03/07 09:59:15;;;;;;;4.50;1.00;;;4.60;99.90;;;;;;5031972;28;20197;-66
2023/03/07 10:01:44;;;;;;;6.00;0.73;;;4.50;99.90;;;;;;5039296;28;20350;-66
2023/03/07 10:04:17;;;;;;;7.47;1.23;;;4.60;99.90;;;;;;5056933;28;20200;-65
2023/03/07 10:06:49;;;;;;;6.37;1.30;;;4.60;99.90;;;;;;5043832;28;20887;-65
2023/03/07 10:09:21;;;;;;;8.27;1.37;;;4.50;99.90;;;;;;5057586;28;20397;-65
2023/03/07 10:12:17;;;;;;;6.30;1.23;;;4.50;99.90;;;;;;5043729;28;20707;-65
2023/03/07 10:15:05;;;;;;;4.73;0.97;;;4.50;99.90;;;;;;5029691;28;20335;-65
2023/03/07 10:17:48;;;;;;;6.67;1.00;;;4.50;99.90;;;;;;5049872;28;20324;-65
2023/03/07 10:20:22;;;;;;;3.83;0.97;;;4.70;99.90;;;;;;5036729;28;24388;-65
2023/03/07 10:22:57;;;;;;;6.27;0.87;;;4.70;99.90;;;;;;5041417;28;20243;-65
2023/03/07 10:25:28;;;;;;;5.10;1.13;;;4.80;99.90;;;;;;5051098;28;20295;-64
2023/03/07 10:28:02;;;;;;;4.13;0.90;;;4.80;99.90;;;;;;5044260;28;20563;-64
2023/03/07 10:30:31;;;;;;;6.03;0.90;;;4.80;99.90;;;;;;5037153;28;20231;-64
2023/03/07 10:33:00;;;;;;;8.60;1.60;;;4.70;99.90;;;;;;5048423;28;20456;-64
2023/03/07 10:35:40;;;;;;;4.43;1.10;;;4.70;99.90;;;;;;5060860;28;20545;-65
2023/03/07 10:38:18;;;;;;;4.43;1.30;;;4.80;99.90;;;;;;5048459;28;20202;-64
2023/03/07 10:40:52;;;;;;;2.67;0.97;;;4.90;99.90;;;;;;5065442;28;20228;-64
2023/03/07 10:43:24;;;;;;;5.23;0.87;;;4.90;99.90;;;;;;5044712;28;20234;-64
2023/03/07 10:45:58;;;;;;;2.63;0.93;;;4.80;99.90;;;;;;5037240;28;20288;-64
2023/03/07 10:48:26;;;;;;;4.43;0.80;;;4.60;99.90;;;;;;5053016;28;20633;-64
2023/03/07 10:51:01;;;;;;;6.03;1.03;;;3.90;99.90;;;;;;5032909;28;20563;-63
2023/03/07 10:53:31;;;;;;;6.43;1.07;;;3.50;99.90;;;;;;5053888;28;20891;-63
2023/03/07 10:56:11;;;;;;;8.80;1.10;;;3.40;99.90;;;;;;5061399;28;20283;-63
2023/03/07 10:58:38;;;;;;;6.20;1.43;;;3.50;99.90;;;;;;5042773;28;20207;-63
2023/03/07 11:01:17;;;;;;;4.47;1.23;;;3.70;99.90;;;;;;5032233;28;20884;-63
2023/03/07 11:03:49;;;;;;;6.87;1.27;;;3.80;99.90;;;;;;5048947;28;20197;-63
2023/03/07 11:06:28;;;;;;;3.60;1.03;;;3.90;99.90;;;;;;5058174;28;20398;-63
2023/03/07 11:08:56;;;;;;;4.27;1.17;;;4.00;99.90;;;;;;5052070;28;20223;-63
2023/03/07 11:11:26;;;;;;;10.60;1.93;;;4.00;99.90;;;;;;5059563;28;20922;-63
2023/03/07 11:14:06;;;;;;;5.87;1.33;;;4.00;99.90;;;;;;5034990;28;20205;-63
2023/03/07 11:16:33;;;;;;;6.03;1.40;;;4.00;99.90;;;;;;5033145;28;20675;-63
2023/03/07 11:19:02;;;;;;;9.90;1.47;;;4.10;99.90;;;;;;5056940;28;20764;-63
2023/03/07 11:21:33;;;;;;;5.77;1.17;;;4.10;99.90;;;;;;5038933;28;20802;-63
2023/03/07 11:24:02;;;;;;;5.60;1.60;;;4.20;99.90;;;;;;5053718;28;20209;-63
2023/03/07 11:26:37;;;;;;;5.47;1.53;;;4.30;99.90;;;;;;5059325;28;20697;-64
2023/03/07 11:29:07;;;;;;;3.43;1.30;;;4.50;99.90;;;;;;5051035;28;20203;-63
2023/03/07 11:31:39;;;;;;;12.63;1.37;;;4.40;99.90;;;;;;5032456;28;20241;-63
2023/03/07 11:34:22;;;;;;;4.00;1.20;;;4.40;99.90;;;;;;5067121;28;20938;-63
2023/03/07 11:36:54;;;;;;;5.27;0.73;;;4.40;99.90;;;;;;5055399;28;20212;-63
2023/03/07 11:39:31;;;;;;;2.47;0.70;;;4.60;99.90;;;;;;5056313;28;20215;-63
2023/03/07 11:42:04;;;;;;;11.27;1.43;;;4.60;99.90;;;;;;5045290;28;20228;-64
2023/03/07 11:44:40;;;;;;;6.77;1.77;;;4.50;99.90;;;;;;5038063;28;20196;-63
2023/03/07 11:47:35;;;;;;;2.17;1.40;;;4.60;99.90;;;;;;5033272;28;20235;-63
2023/03/07 11:50:21;;;;;;;4.90;1.23;;;4.70;99.90;;;;;;5047442;28;20211;-63
2023/03/07 11:53:09;;;;;;;5.73;1.00;;;4.70;99.90;;;;;;5058136;28;20300;-63
2023/03/07 11:55:41;;;;;;;4.03;0.87;;;4.70;99.90;;;;;;5043033;28;20410;-63
2023/03/07 11:58:25;;;;;;;6.40;1.30;;;4.60;99.90;;;;;;5059583;28;20266;-64
2023/03/07 12:01:03;;;;;;;5.57;1.43;;;4.60;99.90;;;;;;5037847;28;20541;-64
2023/03/07 12:03:58;;;;;;;3.97;1.10;;;4.60;99.90;;;;;;5018831;28;20215;-65
2023/03/07 12:06:34;;;;;;;7.10;1.60;;;4.60;99.90;;;;;;4997098;28;20226;-64
2023/03/07 12:09:17;;;;;;;3.83;0.90;;;4.50;99.90;;;;;;5055526;28;20196;-63
2023/03/07 12:11:54;;;;;;;3.03;0.73;;;4.60;99.90;;;;;;5053738;28;20205;-63
2023/03/07 12:14:32;;;;;;;8.13;1.17;;;4.60;99.90;;;;;;5053235;28;20496;-63
2023/03/07 12:17:10;;;;;;;3.77;1.07;;;4.60;99.90;;;;;;5043216;28;20208;-63
2023/03/07 12:19:53;;;;;;;5.63;1.10;;;4.70;99.90;;;;;;5010397;28;20212;-63
2023/03/07 12:22:27;;;;;;;2.67;1.00;;;4.70;99.90;;;;;;5058069;28;20669;-63
2023/03/07 12:25:13;;;;;;;3.80;0.80;;;4.80;99.90;;;;;;5039389;28;20772;-63
2023/03/07 12:27:45;;;;;;;9.20;1.00;;;4.80;99.90;;;;;;5045156;28;20208;-63
2023/03/07 12:30:18;;;;;;;3.97;0.73;;;4.90;99.90;;;;;;5054472;28;20231;-63
2023/03/07 12:32:46;;;;;;;2.20;1.00;;;5.10;99.90;;;;;;5004597;28;20424;-64
2023/03/07 12:35:22;;;;;;;4.60;1.20;;;5.30;99.90;;;;;;5061053;28;20204;-63
2023/03/07 12:37:53;;;;;;;5.43;1.30;;;5.40;99.90;;;;;;5049598;28;20584;-63
2023/03/07 12:40:23;;;;;;;2.90;0.97;;;5.40;99.90;;;;;;5048210;28;20341;-63
2023/03/07 12:42:55;;;;;;;4.43;1.03;;;5.40;99.90;;;;;;5016257;28;20235;-63
2023/03/07 12:45:26;;;;;;;3.20;1.00;;;5.50;99.90;;;;;;5055869;28;20745;-64
2023/03/07 12:48:03;;;;;;;6.63;1.10;;;5.50;99.90;;;;;;5033548;28;20208;-63
2023/03/07 12:50:37;;;;;;;4.90;0.97;;;5.30;99.90;;;;;;5028753;28;20212;-63
2023/03/07 12:53:09;;;;;;;4.43;1.23;;;5.10;99.90;;;;;;5047875;28;20203;-63
2023/03/07 12:55:40;;;;;;;6.17;1.27;;;4.90;99.90;;;;;;5045554;28;20202;-63
2023/03/07 12:58:12;;;;;;;1.73;0.87;;;4.70;99.90;;;;;;5048245;28;20204;-63
2023/03/07 13:00:47;;;;;;;7.70;1.10;;;4.70;99.90;;;;;;5048295;28;20223;-63
2023/03/07 13:03:21;;;;;;;5.57;1.00;;;4.60;99.90;;;;;;5035137;22;20232;-63
2023/03/07 13:05:48;;;;;;;5.93;0.83;;;4.70;99.90;;;;;;5023176;28;20676;-64
2023/03/07 13:08:22;;;;;;;4.57;1.20;;;4.70;99.90;;;;;;5014688;28;20642;-64